Garrison, New York
Current Conditions -  °F | °C
As of 7:45 PM on Monday 24 Nov 2014 (Local Time) from KSWF Reporting Station
Clear Clear  
Wind Chill: 64°   Ceiling: Unl
Heat Index: 64°   Visibility: 10mi
Dew Point: 55°   Wind: 7mph
Humidity: 73%   Direction: 210°SSW
Pressure: 29.65"   Gusts: 21mph
Location:  41.38°N, 73.95°W
Report Text: KSWF 250045Z 21006G18KT 10SM SKC 18/13 A2965
Loading
Personal Weather Stations






























Interactive Weather Map New forecast layout! Learn more

10-Day Weather Forecast

Advertisements
Track Severe Weather on mobile